TimeIDT,TemperatureF,Dew PointF,Humidity,Sea Level PressureIn,VisibilityMPH,Wind Direction,Wind SpeedMPH,Gust SpeedMPH,PrecipitationIn,Events,Conditions,WindDirDegrees,DateUTC
12:20 AM,68.0,57.2,68,29.95,-9999.0,Variable,3.5,-,N/A,,Clear,0,2013-10-12 21:20:00
12:50 AM,68.0,57.2,68,29.95,-9999.0,Variable,3.5,-,N/A,,Clear,0,2013-10-12 21:50:00
1:20 AM,68.0,57.2,68,29.95,-9999.0,ESE,4.6,-,N/A,,Clear,120,2013-10-12 22:20:00
1:50 AM,66.2,57.2,73,29.95,-9999.0,SSE,4.6,-,N/A,,Clear,150,2013-10-12 22:50:00
2:20 AM,66.2,57.2,73,29.92,-9999.0,ESE,5.8,-,N/A,,Clear,120,2013-10-12 23:20:00
2:50 AM,66.2,57.2,73,29.92,-9999.0,Variable,2.3,-,N/A,,Clear,0,2013-10-12 23:50:00
3:00 AM,67,57,63,29.94,6,,2.3,,,,,,2013-10-13 00:00:00
3:20 AM,66.2,57.2,73,29.92,-9999.0,Variable,3.5,-,N/A,,Clear,0,2013-10-13 00:20:00
3:50 AM,66.2,57.2,73,29.92,-9999.0,Variable,3.5,-,N/A,,Clear,0,2013-10-13 00:50:00
4:20 AM,66.2,55.4,68,29.92,6.2,SSE,4.6,-,N/A,,Partly Cloudy,160,2013-10-13 01:20:00
4:50 AM,66.2,55.4,68,29.92,6.2,SSE,5.8,-,N/A,,Partly Cloudy,150,2013-10-13 01:50:00
5:20 AM,66.2,55.4,68,29.92,6.2,Variable,3.5,-,N/A,,Mostly Cloudy,0,2013-10-13 02:20:00
5:50 AM,66.2,57.2,73,29.92,6.2,SE,4.6,-,N/A,,Mostly Cloudy,140,2013-10-13 02:50:00
6:20 AM,66.2,57.2,73,29.92,6.2,SSE,4.6,-,N/A,,Scattered Clouds,150,2013-10-13 03:20:00
6:50 AM,66.2,57.2,73,29.92,6.2,SSE,4.6,-,N/A,,Scattered Clouds,160,2013-10-13 03:50:00
7:20 AM,66.2,57.2,73,29.92,6.2,Variable,2.3,-,N/A,,Mostly Cloudy,0,2013-10-13 04:20:00
7:50 AM,69.8,59.0,68,29.92,6.2,SSE,5.8,-,N/A,,Scattered Clouds,160,2013-10-13 04:50:00
8:20 AM,71.6,60.8,69,29.92,6.2,South,9.2,-,N/A,,Scattered Clouds,180,2013-10-13 05:20:00
8:50 AM,73.4,60.8,65,29.92,6.2,South,11.5,-,N/A,,Partly Cloudy,180,2013-10-13 05:50:00
9:00 AM,73,61,57,29.93,6,South,11.5,,,,Scattered Clouds,180,2013-10-13 06:00:00
9:20 AM,73.4,60.8,65,29.92,6.2,South,9.2,-,N/A,,Scattered Clouds,180,2013-10-13 06:20:00
9:50 AM,75.2,60.8,61,29.92,6.2,South,10.4,-,N/A,,Scattered Clouds,190,2013-10-13 06:50:00
10:20 AM,77.0,62.6,61,29.92,6.2,South,8.1,-,N/A,,Partly Cloudy,180,2013-10-13 07:20:00
10:50 AM,77.0,62.6,61,29.92,6.2,SSW,9.2,-,N/A,,Scattered Clouds,200,2013-10-13 07:50:00
11:20 AM,78.8,62.6,57,29.89,6.2,SW,8.1,-,N/A,,Scattered Clouds,220,2013-10-13 08:20:00
11:50 AM,80.6,62.6,54,29.89,6.2,SSW,6.9,-,N/A,,Partly Cloudy,210,2013-10-13 08:50:00
12:20 PM,80.6,60.8,51,29.89,6.2,WSW,8.1,-,N/A,,Partly Cloudy,250,2013-10-13 09:20:00
12:50 PM,80.6,62.6,54,29.86,6.2,WSW,8.1,-,N/A,,Partly Cloudy,240,2013-10-13 09:50:00
1:20 PM,80.6,62.6,54,29.86,6.2,West,11.5,-,N/A,,Partly Cloudy,260,2013-10-13 10:20:00
1:50 PM,80.6,62.6,54,29.86,6.2,WSW,11.5,-,N/A,,Partly Cloudy,250,2013-10-13 10:50:00
2:20 PM,80.6,62.6,54,29.86,6.2,West,11.5,-,N/A,,Partly Cloudy,260,2013-10-13 11:20:00
2:50 PM,80.6,62.6,54,29.86,6.2,WSW,11.5,-,N/A,,Partly Cloudy,250,2013-10-13 11:50:00
3:00 PM,80,63,47,29.85,6,WSW,11.5,,,,Scattered Clouds,250,2013-10-13 12:00:00
3:20 PM,80.6,64.4,58,29.83,6.2,West,11.5,-,N/A,,Scattered Clouds,270,2013-10-13 12:20:00
3:50 PM,78.8,64.4,61,29.83,6.2,West,11.5,-,N/A,,Scattered Clouds,260,2013-10-13 12:50:00
4:20 PM,78.8,66.2,65,29.83,6.2,West,10.4,-,N/A,,Scattered Clouds,270,2013-10-13 13:20:00
4:50 PM,78.8,66.2,65,29.86,6.2,WNW,11.5,-,N/A,,Scattered Clouds,290,2013-10-13 13:50:00
5:20 PM,77.0,64.4,65,29.86,6.2,West,10.4,-,N/A,,Scattered Clouds,280,2013-10-13 14:20:00
5:50 PM,77.0,66.2,69,29.86,6.2,West,8.1,-,N/A,,Scattered Clouds,280,2013-10-13 14:50:00
6:20 PM,77.0,64.4,65,29.86,6.2,WNW,5.8,-,N/A,,Partly Cloudy,290,2013-10-13 15:20:00
6:50 PM,75.2,64.4,69,29.86,6.2,Variable,3.5,-,N/A,,Partly Cloudy,0,2013-10-13 15:50:00
7:20 PM,75.2,64.4,69,29.86,6.2,Variable,3.5,-,N/A,,Partly Cloudy,0,2013-10-13 16:20:00
7:50 PM,75.2,64.4,69,29.86,6.2,Variable,2.3,-,N/A,,Partly Cloudy,0,2013-10-13 16:50:00
8:20 PM,73.4,64.4,73,29.86,6.2,South,4.6,-,N/A,,Partly Cloudy,190,2013-10-13 17:20:00
8:50 PM,73.4,66.2,78,29.86,6.2,Variable,3.5,-,N/A,,Partly Cloudy,0,2013-10-13 17:50:00
9:00 PM,74,65,66,29.88,6,,3.5,,,,Scattered Clouds,,2013-10-13 18:00:00
9:20 PM,73.4,64.4,73,29.86,6.2,Variable,3.5,-,N/A,,Partly Cloudy,0,2013-10-13 18:20:00
9:50 PM,73.4,64.4,73,29.86,6.2,Variable,3.5,-,N/A,,Partly Cloudy,0,2013-10-13 18:50:00
10:20 PM,73.4,64.4,73,29.86,6.2,Variable,2.3,-,N/A,,Partly Cloudy,0,2013-10-13 19:20:00
10:50 PM,71.6,64.4,78,29.86,6.2,Variable,3.5,-,N/A,,Scattered Clouds,0,2013-10-13 19:50:00
11:20 PM,71.6,62.6,73,29.86,6.2,Variable,3.5,-,N/A,,Scattered Clouds,0,2013-10-13 20:20:00
11:50 PM,71.6,62.6,73,29.86,6.2,Variable,3.5,-,N/A,,Partly Cloudy,0,2013-10-13 20:50:00